Time;durP1;ratioP1;P1;durP2;ratioP2;P2;SDS_P1;SDS_P2;PMS_P1;PMS_P2;Temp;Humidity;BMP_temperature;BMP_pressure;BME280_temperature;BME280_humidity;BME280_pressure;Samples;Min_cycle;Max_cycle;Signal;HPM_P1;HPM_P2
2022/11/07 00:02:12;;;;;;;19.30;9.05;;;;;;;1.96;78.12;99772.75;5018893;28;20048;-70
2022/11/07 00:04:38;;;;;;;16.98;8.80;;;;;;;1.87;78.78;99764.13;5053330;28;20135;-71
2022/11/07 00:07:05;;;;;;;17.25;9.32;;;;;;;1.84;78.89;99766.28;5019004;28;20041;-70
2022/11/07 00:09:30;;;;;;;18.98;9.35;;;;;;;1.87;79.09;99774.59;5053861;28;20052;-70
2022/11/07 00:11:56;;;;;;;16.98;9.38;;;;;;;1.78;78.88;99762.53;5018850;28;20048;-70
2022/11/07 00:14:22;;;;;;;19.75;10.00;;;;;;;1.90;79.82;99770.81;5053681;28;20049;-71
2022/11/07 00:16:48;;;;;;;17.92;9.55;;;;;;;1.83;79.71;99757.63;5035353;28;20457;-70
2022/11/07 00:19:16;;;;;;;19.20;10.05;;;;;;;1.91;79.10;99760.19;5035501;28;20079;-70
2022/11/07 00:21:42;;;;;;;17.63;9.40;;;;;;;1.94;79.39;99753.78;5018813;28;20080;-69
2022/11/07 00:24:09;;;;;;;15.90;8.98;;;;;;;1.95;79.36;99760.66;4986285;28;20417;-70
2022/11/07 00:26:35;;;;;;;19.45;9.57;;;;;;;1.91;79.27;99756.75;5035228;28;20047;-69
2022/11/07 00:29:03;;;;;;;17.63;8.57;;;;;;;1.97;78.76;99758.69;5035294;28;20049;-70
2022/11/07 00:31:29;;;;;;;20.90;10.32;;;;;;;1.91;79.12;99759.38;5035144;28;20040;-71
2022/11/07 00:33:55;;;;;;;18.55;10.00;;;;;;;1.89;79.53;99761.34;5035249;28;20047;-70
2022/11/07 00:36:25;;;;;;;18.55;9.65;;;;;;;1.78;79.69;99755.50;5018496;28;20053;-70
2022/11/07 00:38:51;;;;;;;19.42;9.90;;;;;;;1.88;80.06;99744.84;5018847;28;20060;-70
2022/11/07 00:41:17;;;;;;;18.13;8.80;;;;;;;1.94;80.23;99753.78;5034852;28;20123;-70
2022/11/07 00:43:43;;;;;;;17.58;9.70;;;;;;;1.92;79.21;99745.31;5035022;28;20129;-70
2022/11/07 00:46:10;;;;;;;17.00;9.50;;;;;;;1.96;79.98;99742.19;5018155;28;20053;-71
2022/11/07 00:48:36;;;;;;;15.75;9.18;;;;;;;1.99;79.43;99741.03;5034939;28;20136;-70
2022/11/07 00:51:11;;;;;;;17.23;8.98;;;;;;;1.93;79.35;99737.28;5034534;28;20127;-71
2022/11/07 00:53:36;;;;;;;17.38;9.27;;;;;;;1.91;79.44;99734.06;5034861;28;20041;-71
2022/11/07 00:56:04;;;;;;;18.67;9.85;;;;;;;1.93;79.86;99733.88;5052370;28;20040;-71
2022/11/07 00:58:30;;;;;;;18.42;10.63;;;;;;;1.93;79.25;99734.69;5052570;28;20568;-71
2022/11/07 01:00:56;;;;;;;20.52;10.77;;;;;;;1.97;79.51;99722.91;5034649;28;20079;-70
2022/11/07 01:06:07;;;;;;;20.10;10.20;;;;;;;1.87;79.53;99732.75;5034320;28;20502;-70
2022/11/07 01:08:33;;;;;;;17.23;9.27;;;;;;;1.92;79.46;99727.03;5052616;28;20052;-71
2022/11/07 01:11:03;;;;;;;18.65;9.90;;;;;;;1.78;79.78;99718.13;5034362;28;20083;-71
2022/11/07 01:13:28;;;;;;;17.73;9.90;;;;;;;1.89;80.43;99725.56;5034565;28;20041;-70
2022/11/07 01:15:54;;;;;;;19.88;10.65;;;;;;;1.85;79.84;99726.06;5017966;28;20045;-70
2022/11/07 01:18:20;;;;;;;19.23;10.32;;;;;;;1.88;79.95;99708.22;5017910;28;20041;-70
2022/11/07 01:20:48;;;;;;;20.25;10.95;;;;;;;1.86;80.06;99712.84;5034066;28;20040;-70
2022/11/07 01:23:14;;;;;;;19.63;9.80;;;;;;;1.89;79.74;99707.28;5017973;28;20049;-69
2022/11/07 01:25:40;;;;;;;20.95;11.02;;;;;;;1.95;80.05;99709.19;5051768;28;20532;-71
2022/11/07 01:28:06;;;;;;;19.88;10.15;;;;;;;1.90;80.07;99708.88;5034056;28;20052;-70
2022/11/07 01:30:32;;;;;;;22.35;11.02;;;;;;;1.99;80.35;99702.63;5033783;28;20047;-70
2022/11/07 01:32:57;;;;;;;18.92;10.25;;;;;;;1.97;79.76;99706.38;5050370;28;20037;-71
2022/11/07 01:35:23;;;;;;;22.98;11.23;;;;;;;2.02;80.05;99707.50;5034220;28;20052;-71
2022/11/07 01:37:49;;;;;;;17.60;9.35;;;;;;;2.09;80.40;99710.25;5033876;28;20045;-70
2022/11/07 01:40:15;;;;;;;19.25;9.88;;;;;;;2.15;80.23;99698.28;5017287;28;20033;-71
2022/11/07 01:42:41;;;;;;;18.85;10.00;;;;;;;2.08;79.59;99692.91;5017520;28;20041;-71
2022/11/07 01:45:14;;;;;;;20.10;10.30;;;;;;;1.87;80.21;99693.53;5033664;28;20044;-73
2022/11/07 01:47:39;;;;;;;21.10;10.93;;;;;;;1.94;81.01;99694.50;5017443;28;20560;-70
2022/11/07 01:50:06;;;;;;;21.30;10.73;;;;;;;1.98;81.29;99690.53;5033732;28;20053;-70
2022/11/07 01:52:35;;;;;;;20.33;10.90;;;;;;;1.95;80.16;99693.50;5051478;28;20045;-71
2022/11/07 01:55:08;;;;;;;20.95;11.00;;;;;;;2.04;81.13;99689.84;5033728;28;20048;-71
2022/11/07 01:57:46;;;;;;;17.13;8.65;;;;;;;2.09;80.29;99688.50;5017064;28;20114;-71
2022/11/07 02:00:15;;;;;;;18.60;10.27;;;;;;;2.18;80.39;99679.63;5033904;28;20036;-70
2022/11/07 02:02:41;;;;;;;16.88;9.77;;;;;;;2.31;79.78;99685.06;5033689;28;20387;-71
2022/11/07 02:05:08;;;;;;;18.20;10.07;;;;;;;2.18;79.12;99674.38;5033322;28;20044;-71
2022/11/07 02:07:33;;;;;;;18.65;9.80;;;;;;;2.25;78.89;99683.16;5051510;28;20126;-70
2022/11/07 02:10:00;;;;;;;17.23;9.65;;;;;;;2.20;79.15;99682.84;5051225;28;20569;-72
2022/11/07 02:12:26;;;;;;;17.95;9.63;;;;;;;2.19;79.53;99684.66;5000593;28;20053;-71
2022/11/07 02:15:12;;;;;;;20.05;11.13;;;;;;;2.26;79.49;99693.44;5009127;28;20044;-71
2022/11/07 02:17:38;;;;;;;19.50;10.10;;;;;;;2.32;79.22;99691.91;5016979;28;20049;-71
2022/11/07 02:20:04;;;;;;;18.25;9.82;;;;;;;2.35;79.29;99672.44;5051119;28;20052;-71
2022/11/07 02:23:15;;;;;;;21.27;9.95;;;;;;;2.42;78.82;99674.16;5051282;28;20036;-71
2022/11/07 02:25:40;;;;;;;18.02;9.88;;;;;;;2.31;79.27;99676.41;4953908;28;20042;-71
2022/11/07 02:28:07;;;;;;;18.00;9.82;;;;;;;2.36;79.28;99674.88;5016542;28;20053;-71
2022/11/07 02:30:33;;;;;;;20.27;10.48;;;;;;;2.38;79.25;99664.22;5033153;28;20395;-71
2022/11/07 02:33:00;;;;;;;18.20;9.85;;;;;;;2.38;79.20;99672.06;5033256;28;20052;-68
2022/11/07 02:35:43;;;;;;;19.27;10.07;;;;;;;2.45;78.89;99673.00;5050949;28;20037;-71
2022/11/07 02:38:19;;;;;;;17.77;9.55;;;;;;;2.49;79.21;99675.06;5033268;28;20579;-72
2022/11/07 02:40:48;;;;;;;18.95;10.13;;;;;;;2.50;79.03;99676.72;5000474;28;20041;-71
2022/11/07 02:43:15;;;;;;;18.77;9.77;;;;;;;2.54;79.33;99665.91;5016797;28;20049;-71
2022/11/07 02:45:43;;;;;;;18.80;10.45;;;;;;;2.53;78.59;99670.31;5050814;28;20044;-71
2022/11/07 02:48:09;;;;;;;18.98;10.02;;;;;;;2.60;78.97;99668.59;5033028;28;20084;-71
2022/11/07 02:50:34;;;;;;;19.20;9.60;;;;;;;2.59;78.45;99668.75;5032947;28;20099;-71
2022/11/07 02:53:00;;;;;;;17.55;9.77;;;;;;;2.57;78.39;99663.72;5050974;28;20103;-71
2022/11/07 02:55:26;;;;;;;16.52;9.00;;;;;;;2.59;78.26;99653.06;5016877;28;20041;-71
2022/11/07 02:57:51;;;;;;;16.50;9.48;;;;;;;2.65;77.89;99665.47;5029521;28;20058;-71
2022/11/07 03:00:17;;;;;;;16.05;8.85;;;;;;;2.67;77.72;99663.47;5049003;28;20049;-70
2022/11/07 03:02:45;;;;;;;19.30;9.23;;;;;;;2.64;78.28;99659.38;5032069;28;20045;-70
2022/11/07 03:05:13;;;;;;;16.13;8.88;;;;;;;2.69;78.17;99659.69;5032319;28;20041;-73
2022/11/07 03:07:41;;;;;;;17.17;8.68;;;;;;;2.59;77.50;99655.69;5032518;28;20045;-69
2022/11/07 03:10:08;;;;;;;17.80;10.02;;;;;;;2.55;78.09;99662.28;5016409;28;20040;-71
2022/11/07 03:12:34;;;;;;;15.27;9.13;;;;;;;2.60;78.70;99658.13;5050510;28;20051;-71
2022/11/07 03:15:00;;;;;;;18.70;9.27;;;;;;;2.58;78.39;99659.31;5032836;28;20417;-70
2022/11/07 03:17:25;;;;;;;16.65;9.23;;;;;;;2.48;78.64;99652.53;5050635;28;20060;-71
2022/11/07 03:19:51;;;;;;;17.95;9.45;;;;;;;2.54;78.41;99656.22;5016482;28;20040;-69
2022/11/07 03:22:16;;;;;;;17.63;9.27;;;;;;;2.47;78.79;99650.91;5032689;28;20360;-70
2022/11/07 03:24:42;;;;;;;17.35;9.13;;;;;;;2.44;78.96;99658.28;5032796;28;20449;-72
2022/11/07 03:27:08;;;;;;;17.35;9.32;;;;;;;2.46;79.23;99657.13;5051901;28;20052;-70
2022/11/07 03:29:33;;;;;;;16.55;9.10;;;;;;;2.45;78.13;99641.59;5036303;28;20110;-70
2022/11/07 03:31:59;;;;;;;17.15;10.00;;;;;;;2.53;79.19;99653.78;5054318;28;20041;-70
2022/11/07 03:34:24;;;;;;;17.02;9.15;;;;;;;2.63;78.93;99643.88;5019966;28;20100;-71
2022/11/07 03:36:50;;;;;;;18.25;9.75;;;;;;;2.67;78.56;99653.00;5036376;28;20091;-70
2022/11/07 03:39:16;;;;;;;16.15;8.75;;;;;;;2.51;78.58;99646.13;5003230;28;20422;-69
2022/11/07 03:41:41;;;;;;;15.85;8.70;;;;;;;2.37;79.34;99641.69;5036000;28;20210;-72
2022/11/07 03:44:07;;;;;;;17.65;9.50;;;;;;;2.37;80.23;99642.47;5003258;28;20051;-70
2022/11/07 03:46:33;;;;;;;15.40;8.35;;;;;;;2.43;79.65;99639.16;5019486;28;20090;-71
2022/11/07 03:48:58;;;;;;;16.33;8.50;;;;;;;2.46;79.44;99633.56;5035769;28;20037;-72
2022/11/07 03:51:24;;;;;;;20.40;9.68;;;;;;;2.55;79.10;99643.97;5053889;28;20544;-70
2022/11/07 03:53:50;;;;;;;18.73;9.30;;;;;;;2.57;78.71;99641.97;5035886;28;20142;-71
2022/11/07 03:56:15;;;;;;;15.80;8.77;;;;;;;2.60;78.63;99631.97;5019730;28;20040;-71
2022/11/07 03:58:41;;;;;;;16.40;9.05;;;;;;;2.57;78.73;99636.75;5019960;28;20068;-70
2022/11/07 04:01:09;;;;;;;16.42;8.90;;;;;;;2.55;79.07;99643.97;5053695;28;20047;-71
2022/11/07 04:03:35;;;;;;;16.75;8.88;;;;;;;2.59;78.55;99647.84;5035872;28;20528;-70
2022/11/07 04:06:00;;;;;;;13.07;7.47;;;;;;;2.55;78.54;99650.00;5019004;28;20134;-71
2022/11/07 04:08:26;;;;;;;16.55;8.50;;;;;;;2.61;79.00;99651.91;5035371;28;20168;-71
2022/11/07 04:10:52;;;;;;;13.52;8.02;;;;;;;2.46;78.99;99658.91;5018948;28;20087;-70
2022/11/07 04:18:57;;;;;;;16.60;9.85;;;;;;;2.62;78.98;99653.53;5029753;28;20053;-71
2022/11/07 04:21:23;;;;;;;13.77;8.25;;;;;;;2.63;78.38;99654.34;5002380;28;20099;-71
2022/11/07 04:23:48;;;;;;;12.65;7.20;;;;;;;2.57;78.45;99661.09;5018656;28;20045;-71
2022/11/07 04:28:58;;;;;;;13.55;7.78;;;;;;;2.65;77.92;99653.19;5018582;28;20122;-71
2022/11/07 04:31:24;;;;;;;13.23;6.95;;;;;;;2.66;78.41;99652.19;5018555;28;20509;-67
2022/11/07 04:33:50;;;;;;;12.70;7.13;;;;;;;2.64;78.53;99651.53;5053435;28;20045;-67
2022/11/07 04:36:16;;;;;;;13.50;7.05;;;;;;;2.67;77.94;99661.66;5035290;28;20048;-66
2022/11/07 04:38:42;;;;;;;12.98;7.35;;;;;;;2.65;78.13;99658.41;5053170;28;20076;-67
2022/11/07 04:41:21;;;;;;;15.10;8.00;;;;;;;2.76;78.43;99658.94;5034829;28;20141;-67
2022/11/07 04:43:46;;;;;;;11.40;6.72;;;;;;;2.83;77.97;99659.88;5034737;28;20472;-68
2022/11/07 04:46:12;;;;;;;12.73;7.35;;;;;;;2.80;77.41;99663.66;5017951;28;20099;-68
2022/11/07 04:48:38;;;;;;;13.23;7.13;;;;;;;2.75;77.81;99654.72;5053023;28;20486;-68
2022/11/07 04:51:04;;;;;;;12.75;7.00;;;;;;;2.82;78.16;99661.66;5035004;28;20049;-67
2022/11/07 04:53:30;;;;;;;12.23;6.97;;;;;;;2.82;77.51;99659.03;5034815;28;20049;-67
2022/11/07 04:55:56;;;;;;;13.50;7.15;;;;;;;2.80;77.58;99649.75;5052480;28;20045;-68
2022/11/07 04:58:21;;;;;;;12.18;6.97;;;;;;;2.80;77.86;99652.38;5001784;28;20417;-68
2022/11/07 05:00:47;;;;;;;11.55;6.35;;;;;;;2.78;78.25;99654.34;5034427;28;20040;-68
2022/11/07 05:03:13;;;;;;;12.48;6.97;;;;;;;2.78;78.34;99652.53;5052232;28;20095;-68
2022/11/07 05:05:38;;;;;;;10.00;6.57;;;;;;;2.80;77.74;99642.72;5034171;28;20049;-68
2022/11/07 05:08:04;;;;;;;10.10;6.18;;;;;;;2.81;77.69;99649.56;5034449;28;20049;-67
2022/11/07 05:10:30;;;;;;;10.48;6.22;;;;;;;2.82;77.62;99642.53;5034424;28;20139;-69
2022/11/07 05:12:56;;;;;;;11.35;6.90;;;;;;;2.86;77.83;99636.75;5052512;28;20555;-69
2022/11/07 05:15:22;;;;;;;10.05;5.88;;;;;;;2.98;77.82;99636.31;5034395;28;20495;-66
2022/11/07 05:17:48;;;;;;;10.18;6.55;;;;;;;2.77;77.36;99635.22;5034358;28;20060;-65
2022/11/07 05:20:23;;;;;;;12.50;7.30;;;;;;;2.79;77.87;99635.03;5052148;28;20049;-66
2022/11/07 05:25:34;;;;;;;12.07;6.38;;;;;;;2.80;77.39;99634.06;5003161;28;20044;-68
2022/11/07 05:27:59;;;;;;;11.45;6.45;;;;;;;2.84;78.17;99636.13;5029926;28;20048;-66
2022/11/07 05:30:25;;;;;;;13.02;6.47;;;;;;;2.93;77.48;99648.13;4996210;28;20048;-66
2022/11/07 05:32:51;;;;;;;13.80;6.80;;;;;;;2.95;77.67;99640.09;5028580;28;20045;-66
2022/11/07 05:35:17;;;;;;;10.95;5.80;;;;;;;2.99;77.49;99649.19;5029995;28;20043;-66
2022/11/07 05:37:42;;;;;;;12.32;6.50;;;;;;;3.07;77.18;99646.50;5047433;28;20410;-67
2022/11/07 05:40:09;;;;;;;11.48;6.65;;;;;;;2.91;77.42;99646.66;5015633;28;20041;-67
2022/11/07 05:42:34;;;;;;;12.30;6.13;;;;;;;2.90;77.94;99648.47;5047744;28;20052;-67
2022/11/07 05:45:01;;;;;;;11.07;6.50;;;;;;;2.80;77.82;99641.91;5030730;28;20389;-66
2022/11/07 05:47:27;;;;;;;12.00;5.90;;;;;;;2.82;77.50;99639.91;4996589;28;20143;-68
2022/11/07 05:49:52;;;;;;;10.68;5.93;;;;;;;2.85;77.99;99634.31;5048287;28;20132;-65
2022/11/07 05:52:18;;;;;;;10.32;5.93;;;;;;;2.86;77.82;99642.00;5048402;28;20041;-66
2022/11/07 05:54:44;;;;;;;10.55;5.88;;;;;;;2.96;78.05;99645.13;5014902;28;20574;-67
2022/11/07 05:57:09;;;;;;;11.82;5.75;;;;;;;3.08;77.27;99648.09;5031481;28;20067;-67
2022/11/07 05:59:35;;;;;;;10.15;6.18;;;;;;;3.00;77.30;99644.78;5032033;28;20124;-66
2022/11/07 06:02:02;;;;;;;9.85;6.65;;;;;;;3.03;77.05;99649.66;5031836;28;20132;-66
2022/11/07 06:04:28;;;;;;;11.77;5.90;;;;;;;3.02;77.42;99655.88;5014850;28;20116;-67
2022/11/07 06:06:54;;;;;;;9.77;6.10;;;;;;;3.11;77.34;99654.78;5013135;28;20049;-66
2022/11/07 06:09:20;;;;;;;10.80;6.18;;;;;;;3.15;76.79;99658.69;5029799;28;20095;-65
2022/11/07 06:11:45;;;;;;;11.15;6.22;;;;;;;3.13;77.22;99658.06;5029682;28;20084;-66
2022/11/07 06:14:11;;;;;;;11.68;6.40;;;;;;;3.09;76.67;99665.47;5049477;28;20128;-66
2022/11/07 06:16:37;;;;;;;11.07;6.18;;;;;;;3.12;77.14;99667.72;5029879;28;20053;-67
2022/11/07 06:19:02;;;;;;;11.20;6.57;;;;;;;3.01;77.85;99676.03;5049765;28;20510;-67
2022/11/07 06:21:28;;;;;;;12.88;6.40;;;;;;;3.12;77.19;99654.63;5031998;28;20040;-66
2022/11/07 06:23:54;;;;;;;10.93;6.22;;;;;;;3.18;77.22;99663.56;5029779;28;20494;-67
2022/11/07 06:26:20;;;;;;;12.32;6.68;;;;;;;3.21;76.78;99664.97;5013790;28;20071;-66
2022/11/07 06:28:45;;;;;;;9.05;5.78;;;;;;;3.31;76.14;99662.91;5049726;28;20037;-65
2022/11/07 06:31:11;;;;;;;13.02;6.32;;;;;;;3.30;76.39;99662.09;5015518;28;20464;-65
2022/11/07 06:33:37;;;;;;;9.82;5.80;;;;;;;3.30;76.47;99664.72;5031168;28;20037;-65
2022/11/07 06:36:07;;;;;;;11.75;6.57;;;;;;;3.21;76.64;99663.19;5056030;28;20041;-66
2022/11/07 06:38:34;;;;;;;10.68;6.40;;;;;;;3.32;76.56;99662.69;5031041;28;20044;-66
2022/11/07 06:41:07;;;;;;;11.20;6.30;;;;;;;3.34;76.46;99655.47;5013404;28;20071;-64
2022/11/07 06:43:33;;;;;;;14.13;7.07;;;;;;;3.36;76.62;99647.44;5013634;28;20053;-66
2022/11/07 06:46:05;;;;;;;14.05;6.82;;;;;;;3.38;76.08;99651.50;5013974;28;20040;-66
2022/11/07 06:48:32;;;;;;;12.68;6.70;;;;;;;3.47;77.09;99646.13;5028841;28;20391;-65
2022/11/07 06:51:06;;;;;;;12.40;6.63;;;;;;;3.58;76.79;99646.47;5014799;28;20076;-66
2022/11/07 06:53:32;;;;;;;12.80;7.15;;;;;;;3.59;75.58;99652.56;4994472;28;20067;-66
2022/11/07 06:55:58;;;;;;;11.65;6.78;;;;;;;3.56;76.18;99651.09;5030370;28;20041;-66
2022/11/07 06:58:24;;;;;;;12.02;6.70;;;;;;;3.67;78.52;99651.59;5014204;28;20061;-66
2022/11/07 07:00:50;;;;;;;11.40;7.00;;;;;;;3.78;77.68;99648.50;5048043;28;20043;-67
2022/11/07 07:03:16;;;;;;;12.30;6.80;;;;;;;3.82;76.84;99645.34;5050483;28;20037;-66
2022/11/07 07:05:42;;;;;;;11.20;6.30;;;;;;;3.89;76.89;99648.00;5052414;28;20052;-66
2022/11/07 07:08:10;;;;;;;10.60;6.47;;;;;;;3.82;75.88;99647.13;5049391;28;20053;-67
2022/11/07 07:10:38;;;;;;;11.95;6.32;;;;;;;3.77;76.29;99650.31;5034136;28;20052;-66
2022/11/07 07:13:04;;;;;;;12.45;6.82;;;;;;;3.54;76.81;99652.28;5015667;28;20528;-67
2022/11/07 07:15:31;;;;;;;10.60;6.95;;;;;;;3.45;76.12;99654.19;5033842;28;20037;-66
2022/11/07 07:18:00;;;;;;;11.25;6.20;;;;;;;3.55;77.23;99651.28;5052367;28;20561;-67
2022/11/07 07:20:26;;;;;;;12.00;7.17;;;;;;;3.65;76.88;99651.81;5032540;28;20037;-66
2022/11/07 07:22:52;;;;;;;13.35;6.72;;;;;;;3.78;76.29;99656.38;5014983;28;20044;-67
2022/11/07 07:25:18;;;;;;;11.23;6.63;;;;;;;3.79;75.70;99645.69;5015887;28;20437;-67
2022/11/07 07:27:44;;;;;;;10.30;6.47;;;;;;;3.82;75.57;99652.34;4999278;28;20076;-66
2022/11/07 07:30:10;;;;;;;10.68;5.70;;;;;;;3.81;75.50;99650.75;5014954;28;20156;-66
2022/11/07 07:32:37;;;;;;;10.55;6.30;;;;;;;3.86;75.51;99654.44;5031986;28;20045;-67
2022/11/07 07:35:03;;;;;;;13.40;7.43;;;;;;;3.89;74.93;99655.88;5031512;28;20040;-66
2022/11/07 07:37:29;;;;;;;11.10;6.60;;;;;;;3.86;75.35;99653.63;5013748;28;20095;-68
2022/11/07 07:39:55;;;;;;;11.43;6.65;;;;;;;3.86;75.11;99653.63;5031002;28;20049;-67
2022/11/07 07:42:21;;;;;;;12.68;6.35;;;;;;;3.86;75.99;99649.19;5031843;28;20095;-66
2022/11/07 07:44:47;;;;;;;12.38;6.90;;;;;;;3.90;75.00;99651.44;5015154;28;20051;-67
2022/11/07 07:47:12;;;;;;;10.63;6.50;;;;;;;3.92;75.41;99652.88;4998706;28;20044;-65
2022/11/07 07:49:38;;;;;;;11.82;6.82;;;;;;;4.04;75.36;99647.94;5031758;28;20687;-66
2022/11/07 07:52:04;;;;;;;12.65;5.95;;;;;;;4.10;74.75;99650.63;5015544;28;20045;-67
2022/11/07 07:54:30;;;;;;;11.68;6.10;;;;;;;4.10;74.51;99641.94;5049957;28;20139;-68
2022/11/07 07:56:55;;;;;;;13.32;7.13;;;;;;;4.03;75.06;99641.88;5033147;28;20561;-67
2022/11/07 07:59:21;;;;;;;11.75;6.72;;;;;;;4.15;75.33;99639.56;5016003;28;20560;-66
2022/11/07 08:01:47;;;;;;;12.07;6.80;;;;;;;4.19;74.09;99640.81;5033100;28;20505;-66
2022/11/07 08:04:13;;;;;;;10.65;6.82;;;;;;;3.98;74.61;99631.13;5017040;28;20086;-65
2022/11/07 08:06:39;;;;;;;13.00;6.38;;;;;;;3.93;74.85;99635.31;5033912;28;20084;-67
2022/11/07 08:09:05;;;;;;;11.75;6.20;;;;;;;3.87;75.04;99636.88;5000587;28;20156;-67
2022/11/07 08:11:32;;;;;;;10.27;6.22;;;;;;;4.02;75.84;99639.44;5030753;28;20036;-67
2022/11/07 08:13:57;;;;;;;9.82;5.82;;;;;;;4.22;75.70;99629.13;5015187;28;20040;-67
2022/11/07 08:16:23;;;;;;;12.27;6.20;;;;;;;4.35;74.65;99634.44;5048059;28;20502;-67
2022/11/07 08:18:49;;;;;;;10.13;6.03;;;;;;;4.36;73.47;99630.03;5016223;28;20052;-67
2022/11/07 08:21:14;;;;;;;9.35;5.97;;;;;;;4.37;74.30;99619.34;5014907;28;20111;-66
2022/11/07 08:23:40;;;;;;;9.52;5.47;;;;;;;4.57;74.34;99626.53;5030706;28;20044;-69
2022/11/07 08:26:06;;;;;;;11.25;6.35;;;;;;;4.52;73.62;99634.97;5013702;28;20040;-68
2022/11/07 08:28:34;;;;;;;9.48;6.07;;;;;;;4.59;73.65;99632.38;5030277;28;20037;-69
2022/11/07 08:31:09;;;;;;;10.23;5.82;;;;;;;4.49;73.25;99641.41;5048194;28;20174;-66
2022/11/07 08:33:35;;;;;;;10.10;5.72;;;;;;;4.46;73.16;99636.56;5015121;28;20060;-65
2022/11/07 08:36:02;;;;;;;8.82;5.63;;;;;;;4.57;73.36;99650.16;5048594;28;20045;-65
2022/11/07 08:38:29;;;;;;;10.32;5.90;;;;;;;4.49;72.90;99644.03;5050352;28;20053;-66
2022/11/07 08:40:55;;;;;;;9.68;5.40;;;;;;;4.48;73.54;99642.44;5032607;28;20080;-63
2022/11/07 08:43:21;;;;;;;9.07;5.60;;;;;;;4.49;73.01;99638.78;5032625;28;20037;-65
2022/11/07 08:45:48;;;;;;;9.20;5.85;;;;;;;4.33;73.98;99642.53;5050922;28;20044;-65
2022/11/07 08:48:15;;;;;;;8.77;5.45;;;;;;;4.42;73.69;99642.41;5051193;28;20565;-66
2022/11/07 08:50:41;;;;;;;9.95;5.85;;;;;;;4.42;73.42;99645.03;5031278;28;20131;-64
2022/11/07 08:53:07;;;;;;;8.13;5.13;;;;;;;4.47;73.44;99639.97;5050905;28;20137;-67
2022/11/07 08:55:33;;;;;;;9.52;5.82;;;;;;;4.57;73.51;99639.66;5031877;28;20041;-65
2022/11/07 08:58:00;;;;;;;9.32;5.40;;;;;;;4.65;72.37;99642.16;5031456;28;20057;-66
2022/11/07 09:00:26;;;;;;;9.57;6.10;;;;;;;4.62;71.99;99635.47;5049665;28;20156;-67
2022/11/07 09:02:52;;;;;;;11.15;5.93;;;;;;;4.60;72.39;99632.22;5031485;28;20037;-66
2022/11/07 09:05:18;;;;;;;10.07;5.88;;;;;;;4.71;73.39;99642.19;5032497;28;20575;-65
2022/11/07 09:07:43;;;;;;;11.63;6.07;;;;;;;4.66;71.93;99639.31;5033213;28;20041;-66
2022/11/07 09:10:10;;;;;;;8.90;5.38;;;;;;;4.68;72.49;99632.06;5032356;28;20040;-66
2022/11/07 09:12:43;;;;;;;9.75;5.85;;;;;;;4.69;72.58;99633.69;5014324;28;20448;-66
2022/11/07 09:15:09;;;;;;;12.02;6.32;;;;;;;4.68;72.90;99633.88;4999052;28;20045;-65
2022/11/07 09:17:35;;;;;;;11.10;6.13;;;;;;;4.74;72.90;99643.63;5032626;28;20056;-63
2022/11/07 09:20:01;;;;;;;9.57;6.00;;;;;;;4.80;72.38;99639.41;5049798;28;20033;-64
2022/11/07 09:22:27;;;;;;;10.90;5.47;;;;;;;4.74;72.49;99638.38;5031301;28;20045;-67
2022/11/07 09:24:52;;;;;;;9.98;6.15;;;;;;;4.64;73.16;99637.88;5032295;28;20140;-67
2022/11/07 09:27:18;;;;;;;11.07;6.40;;;;;;;4.61;73.92;99633.03;5015326;28;20041;-66
2022/11/07 09:29:44;;;;;;;10.43;5.85;;;;;;;4.72;73.57;99637.75;5014922;28;20041;-66
2022/11/07 09:32:10;;;;;;;10.32;7.10;;;;;;;4.83;72.64;99631.16;5015028;28;20052;-66
2022/11/07 09:34:35;;;;;;;9.43;6.15;;;;;;;4.87;72.65;99635.00;5050165;28;20040;-66
2022/11/07 09:37:01;;;;;;;11.63;6.32;;;;;;;4.96;72.66;99633.81;5015723;28;20067;-65
2022/11/07 09:39:27;;;;;;;9.75;5.78;;;;;;;4.70;73.15;99621.34;5031093;28;20041;-66
2022/11/07 09:42:09;;;;;;;9.57;5.75;;;;;;;4.73;73.34;99621.78;5050166;28;20040;-65
2022/11/07 09:44:54;;;;;;;9.48;5.55;;;;;;;4.63;72.71;99625.78;5032627;28;20056;-65
2022/11/07 09:47:44;;;;;;;11.88;6.85;;;;;;;4.63;74.01;99626.56;5031910;28;20419;-66
2022/11/07 09:50:17;;;;;;;11.23;6.93;;;;;;;4.75;73.29;99618.97;5025830;28;20533;-66
2022/11/07 09:52:53;;;;;;;8.65;5.60;;;;;;;4.83;72.74;99631.16;5031782;28;20045;-66
2022/11/07 09:55:23;;;;;;;10.15;6.15;;;;;;;4.87;71.99;99625.28;5031442;28;20502;-64
2022/11/07 09:57:51;;;;;;;8.98;5.43;;;;;;;4.90;72.96;99626.72;5013878;28;20059;-66
2022/11/07 10:00:20;;;;;;;10.25;5.78;;;;;;;4.91;72.81;99621.28;5031374;28;20080;-64
2022/11/07 10:02:49;;;;;;;11.05;6.40;;;;;;;4.98;72.25;99618.69;5015635;28;20135;-66
2022/11/07 10:05:22;;;;;;;11.73;6.68;;;;;;;4.86;72.70;99613.19;5049227;28;20037;-65
2022/11/07 10:07:57;;;;;;;12.70;6.30;;;;;;;4.89;72.65;99617.22;5027291;28;20041;-66
2022/11/07 10:10:34;;;;;;;10.50;6.03;;;;;;;4.82;72.85;99621.63;5012950;28;20049;-64
2022/11/07 10:13:07;;;;;;;10.98;6.25;;;;;;;4.71;73.44;99618.56;5030454;28;20041;-65
2022/11/07 10:15:39;;;;;;;11.18;6.22;;;;;;;4.72;73.70;99619.34;5050358;28;20045;-69
2022/11/07 10:18:15;;;;;;;12.45;6.78;;;;;;;4.65;73.30;99615.91;5012176;28;20152;-65
2022/11/07 10:21:03;;;;;;;12.73;6.03;;;;;;;4.58;73.37;99607.97;5013488;28;20041;-64
2022/11/07 10:23:51;;;;;;;12.23;6.13;;;;;;;4.69;73.19;99599.53;5014313;28;20045;-66
2022/11/07 10:26:19;;;;;;;9.07;5.93;;;;;;;4.69;73.16;99604.78;5046255;28;20052;-64
2022/11/07 10:29:08;;;;;;;9.40;5.80;;;;;;;4.71;73.44;99613.31;5049746;28;20132;-64
2022/11/07 10:31:47;;;;;;;11.50;6.40;;;;;;;4.48;74.05;99604.88;5031923;28;20068;-65
2022/11/07 10:34:33;;;;;;;11.32;6.18;;;;;;;4.41;74.65;99604.00;5029786;28;20095;-65
2022/11/07 10:36:59;;;;;;;10.60;6.90;;;;;;;4.54;74.32;99604.09;5002730;28;20410;-65
2022/11/07 10:39:25;;;;;;;10.90;6.32;;;;;;;4.51;73.59;99594.00;5034060;28;20048;-64
2022/11/07 10:42:28;;;;;;;10.80;6.50;;;;;;;4.45;73.61;99585.06;5017383;28;20044;-65
2022/11/07 10:45:06;;;;;;;10.48;6.78;;;;;;;4.48;73.39;99599.63;5019613;28;20041;-65
2022/11/07 10:47:40;;;;;;;10.90;6.10;;;;;;;4.51;74.68;99601.88;5015643;28;20052;-65
2022/11/07 10:50:21;;;;;;;11.35;6.15;;;;;;;4.54;73.83;99593.59;5036871;28;20498;-65
2022/11/07 10:52:55;;;;;;;13.63;6.03;;;;;;;4.58;73.96;99605.31;5055462;28;20135;-65
2022/11/07 10:55:22;;;;;;;12.73;6.18;;;;;;;4.68;73.15;99603.19;5054581;28;20148;-65
2022/11/07 10:58:11;;;;;;;12.02;7.15;;;;;;;4.58;73.09;99605.31;5032374;28;20339;-66
2022/11/07 11:00:39;;;;;;;11.02;6.63;;;;;;;4.64;73.61;99609.00;5015247;28;20573;-65
2022/11/07 11:03:26;;;;;;;13.00;6.90;;;;;;;4.52;74.05;99606.91;5032978;28;20045;-66
2022/11/07 11:05:52;;;;;;;12.95;6.68;;;;;;;4.55;74.44;99610.97;4997933;28;20156;-65
2022/11/07 11:08:19;;;;;;;11.07;6.80;;;;;;;4.62;74.20;99597.88;5015070;28;20140;-65
2022/11/07 11:10:46;;;;;;;12.90;7.50;;;;;;;4.66;73.72;99594.69;5014617;28;20123;-65
2022/11/07 11:13:32;;;;;;;11.07;6.82;;;;;;;4.70;73.20;99595.09;5031017;28;20048;-63
2022/11/07 11:16:14;;;;;;;13.50;7.45;;;;;;;4.74;73.54;99599.78;5031036;28;20402;-66
2022/11/07 11:18:56;;;;;;;14.80;7.85;;;;;;;4.75;72.92;99592.72;4999543;28;20502;-65
2022/11/07 11:21:22;;;;;;;12.32;7.10;;;;;;;4.70;73.38;99592.47;5033349;28;20161;-64
2022/11/07 11:23:48;;;;;;;14.38;7.20;;;;;;;4.63;73.59;99595.06;5015163;28;20045;-67
2022/11/07 11:26:29;;;;;;;11.88;7.15;;;;;;;4.49;74.54;99591.53;5031974;28;20049;-65
2022/11/07 11:29:07;;;;;;;12.45;7.28;;;;;;;4.62;73.87;99601.34;5032258;28;20409;-65
2022/11/07 11:31:40;;;;;;;15.13;8.00;;;;;;;4.68;73.45;99594.50;5014848;28;20049;-64
2022/11/07 11:34:11;;;;;;;13.15;7.47;;;;;;;4.69;73.92;99598.75;5031598;28;20052;-65
2022/11/07 11:36:56;;;;;;;15.40;7.63;;;;;;;4.73;73.74;99590.25;5031071;28;20038;-64
2022/11/07 11:39:34;;;;;;;15.27;7.32;;;;;;;4.77;73.26;99596.75;5014565;28;20581;-65
2022/11/07 11:42:00;;;;;;;12.02;7.53;;;;;;;4.77;73.34;99594.13;5032682;28;20049;-63
2022/11/07 11:44:34;;;;;;;18.02;8.93;;;;;;;4.81;73.58;99594.56;5015103;28;20049;-64
2022/11/07 11:47:22;;;;;;;15.13;8.27;;;;;;;4.64;73.64;99578.31;5030024;28;20052;-65
2022/11/07 11:49:59;;;;;;;16.20;8.15;;;;;;;4.54;74.63;99586.53;5031573;28;20141;-64
2022/11/07 11:52:28;;;;;;;14.75;8.18;;;;;;;4.49;74.41;99582.88;5030335;28;20599;-64
2022/11/07 11:54:56;;;;;;;15.98;8.70;;;;;;;4.44;74.39;99577.38;5015107;28;20049;-64